createdAt,value
2017-08-16T00:00:42.970Z,20.00
2017-08-16T00:03:11.144Z,19.90
2017-08-16T00:05:38.645Z,19.80
2017-08-16T00:08:10.870Z,19.80
2017-08-16T00:10:38.424Z,19.80
2017-08-16T00:13:07.431Z,19.80
2017-08-16T00:15:34.938Z,19.80
2017-08-16T00:18:03.388Z,19.80
2017-08-16T00:20:31.438Z,19.70
2017-08-16T00:22:59.903Z,19.70
2017-08-16T00:25:28.184Z,19.80
2017-08-16T00:27:55.687Z,19.70
2017-08-16T00:30:23.187Z,19.70
2017-08-16T00:32:50.688Z,19.70
2017-08-16T00:35:18.192Z,19.60
2017-08-16T00:37:45.712Z,19.70
2017-08-16T00:40:13.221Z,19.60
2017-08-16T00:42:42.702Z,19.70
2017-08-16T00:45:10.239Z,19.70
2017-08-16T00:47:37.792Z,19.80
2017-08-16T00:50:05.377Z,19.70
2017-08-16T00:52:32.943Z,19.60
2017-08-16T00:55:00.477Z,19.60
2017-08-16T00:57:28.001Z,19.60
2017-08-16T00:59:55.580Z,19.60
2017-08-16T01:02:23.142Z,19.60
2017-08-16T01:04:50.647Z,19.60
2017-08-16T01:07:18.164Z,19.60
2017-08-16T01:09:49.852Z,19.60
2017-08-16T01:12:17.356Z,19.50
2017-08-16T01:14:45.178Z,19.50
2017-08-16T01:17:13.046Z,19.50
2017-08-16T01:19:40.580Z,19.50
2017-08-16T01:22:08.143Z,19.50
2017-08-16T01:24:35.652Z,19.50
2017-08-16T01:27:03.619Z,19.50
2017-08-16T01:29:32.048Z,19.50
2017-08-16T01:31:59.567Z,19.50
2017-08-16T01:34:27.116Z,19.50
2017-08-16T01:36:54.627Z,19.50
2017-08-16T01:39:28.835Z,19.50
2017-08-16T01:41:56.391Z,19.50
2017-08-16T01:44:24.673Z,19.50
2017-08-16T01:46:52.270Z,19.50
2017-08-16T01:49:19.815Z,19.50
2017-08-16T01:51:47.348Z,19.60
2017-08-16T01:54:14.864Z,19.60
2017-08-16T01:56:45.835Z,19.60
2017-08-16T01:59:13.336Z,19.60
2017-08-16T02:01:40.836Z,19.60
2017-08-16T02:04:08.379Z,19.60
2017-08-16T02:06:35.899Z,19.50
2017-08-16T02:09:03.435Z,19.50
2017-08-16T02:11:34.310Z,19.60
2017-08-16T02:14:01.832Z,19.80
2017-08-16T02:16:29.371Z,19.80
2017-08-16T02:18:56.875Z,19.80
2017-08-16T02:21:25.148Z,20.00
2017-08-16T02:23:52.655Z,20.00
2017-08-16T02:26:20.187Z,20.00
2017-08-16T02:28:47.694Z,20.00
2017-08-16T02:31:15.218Z,20.00
2017-08-16T02:33:42.728Z,19.90
2017-08-16T02:36:10.240Z,19.90
2017-08-16T02:38:38.878Z,19.80
2017-08-16T02:41:08.555Z,19.90
2017-08-16T02:43:39.084Z,19.80
2017-08-16T02:46:06.592Z,19.80
2017-08-16T02:48:34.900Z,19.70
2017-08-16T02:51:02.408Z,19.70
2017-08-16T02:53:29.917Z,19.70
2017-08-16T02:55:57.453Z,19.70
2017-08-16T02:58:26.559Z,19.60
2017-08-16T03:00:54.596Z,19.60
2017-08-16T03:03:22.116Z,19.60
2017-08-16T03:05:49.683Z,19.50
2017-08-16T03:08:17.298Z,19.50
2017-08-16T03:10:44.806Z,19.40
2017-08-16T03:13:12.313Z,19.40
2017-08-16T03:15:40.608Z,19.20
2017-08-16T03:18:08.107Z,19.30
2017-08-16T03:20:35.651Z,19.30
2017-08-16T03:23:03.160Z,19.30
2017-08-16T03:25:30.666Z,19.30
2017-08-16T03:27:58.235Z,19.20
2017-08-16T03:30:25.741Z,19.20
2017-08-16T03:32:54.008Z,19.00
2017-08-16T03:35:21.844Z,19.00
2017-08-16T03:37:49.351Z,19.00
2017-08-16T03:40:16.899Z,19.00
2017-08-16T03:42:51.521Z,18.90
2017-08-16T03:45:19.031Z,19.00
2017-08-16T03:47:46.567Z,19.00
2017-08-16T03:50:14.831Z,18.90
2017-08-16T03:52:42.344Z,18.90
2017-08-16T03:55:10.252Z,18.90
2017-08-16T03:57:41.231Z,18.80
2017-08-16T04:00:08.728Z,18.80
2017-08-16T04:02:36.276Z,18.80
2017-08-16T04:05:03.780Z,18.80
2017-08-16T04:07:31.367Z,18.80
2017-08-16T04:09:58.871Z,18.70
2017-08-16T04:12:30.782Z,18.70
2017-08-16T04:14:59.208Z,18.80
2017-08-16T04:17:26.723Z,18.80
2017-08-16T04:19:54.260Z,18.70
2017-08-16T04:22:22.536Z,18.70
2017-08-16T04:24:50.048Z,18.70
2017-08-16T04:27:17.584Z,18.70
2017-08-16T04:29:47.408Z,18.70
2017-08-16T04:32:14.922Z,18.70
2017-08-16T04:34:43.015Z,18.70
2017-08-16T04:37:10.519Z,18.70
2017-08-16T04:39:38.091Z,18.60
2017-08-16T04:42:06.550Z,18.60
2017-08-16T04:44:34.051Z,18.60
2017-08-16T04:47:01.621Z,18.60
2017-08-16T04:49:29.175Z,18.80
2017-08-16T04:51:56.785Z,19.00
2017-08-16T04:54:24.315Z,19.10
2017-08-16T04:56:51.820Z,18.80
2017-08-16T04:59:23.357Z,19.10
2017-08-16T05:01:51.756Z,19.20
2017-08-16T05:04:19.263Z,19.20
2017-08-16T05:06:46.801Z,19.00
2017-08-16T05:09:14.346Z,19.00
2017-08-16T05:11:41.904Z,19.10
2017-08-16T05:14:09.416Z,19.20
2017-08-16T05:16:36.940Z,19.10
2017-08-16T05:19:04.431Z,19.10
2017-08-16T05:21:31.948Z,19.10
2017-08-16T05:23:59.559Z,19.10
2017-08-16T05:26:27.080Z,19.30
2017-08-16T05:28:54.624Z,19.20
2017-08-16T05:31:22.987Z,19.30
2017-08-16T05:33:50.489Z,19.10
2017-08-16T05:36:18.051Z,19.40
2017-08-16T05:38:45.560Z,19.30
2017-08-16T05:41:13.090Z,19.30
2017-08-16T05:43:44.672Z,19.30
2017-08-16T05:46:12.243Z,19.40
2017-08-16T05:48:39.893Z,19.50
2017-08-16T05:51:07.391Z,19.60
2017-08-16T05:53:34.884Z,20.00
2017-08-16T05:56:02.415Z,19.90
2017-08-16T05:58:30.008Z,19.70
2017-08-16T06:00:57.573Z,19.50
2017-08-16T06:03:25.103Z,19.40
2017-08-16T06:05:52.603Z,19.40
2017-08-16T06:08:20.878Z,19.30
2017-08-16T06:10:48.809Z,19.40
2017-08-16T06:13:17.218Z,19.40
2017-08-16T06:15:47.479Z,19.50
2017-08-16T06:18:15.003Z,19.70
2017-08-16T06:20:42.527Z,19.70
2017-08-16T06:23:10.031Z,19.60
2017-08-16T06:25:37.557Z,19.70
2017-08-16T06:28:05.079Z,19.80
2017-08-16T06:30:36.169Z,19.70
2017-08-16T06:33:03.683Z,19.80
2017-08-16T06:35:31.668Z,19.80
2017-08-16T06:37:59.178Z,20.00
2017-08-16T06:40:26.700Z,20.10
2017-08-16T06:42:54.239Z,20.00
2017-08-16T06:45:25.553Z,19.90
2017-08-16T06:47:53.111Z,19.80
2017-08-16T06:50:20.611Z,19.80
2017-08-16T06:52:48.120Z,19.70
2017-08-16T06:55:15.661Z,19.60
2017-08-16T06:57:43.171Z,19.50
2017-08-16T07:00:10.668Z,19.60
2017-08-16T07:02:38.207Z,19.60
2017-08-16T07:05:05.756Z,19.80
2017-08-16T07:07:33.964Z,20.00
2017-08-16T07:10:01.516Z,20.10
2017-08-16T07:12:29.042Z,20.30
2017-08-16T07:15:00.864Z,20.40
2017-08-16T07:17:29.325Z,20.50
2017-08-16T07:19:56.843Z,20.70
2017-08-16T07:22:24.352Z,21.00
2017-08-16T07:24:51.854Z,21.30
2017-08-16T07:27:19.356Z,21.60
2017-08-16T07:29:46.879Z,21.70
2017-08-16T07:32:14.402Z,21.70
2017-08-16T07:34:42.672Z,21.80
2017-08-16T07:37:10.176Z,21.80
2017-08-16T07:39:37.682Z,22.20
2017-08-16T07:42:05.227Z,22.60
2017-08-16T07:44:32.735Z,23.00
2017-08-16T07:47:00.295Z,23.30
2017-08-16T07:49:28.129Z,23.50
2017-08-16T07:51:55.625Z,23.80
2017-08-16T07:54:23.167Z,23.70
2017-08-16T07:56:50.671Z,23.30
2017-08-16T07:59:18.172Z,23.10
2017-08-16T08:01:49.047Z,22.70
2017-08-16T08:04:16.539Z,23.70
2017-08-16T08:06:44.124Z,25.50
2017-08-16T08:09:11.665Z,26.50
2017-08-16T08:11:39.176Z,26.90
2017-08-16T08:14:06.785Z,25.80
2017-08-16T08:16:37.852Z,25.10
2017-08-16T08:19:06.128Z,25.00
2017-08-16T08:21:33.639Z,25.00
2017-08-16T08:24:01.143Z,25.80
2017-08-16T08:26:28.643Z,26.10
2017-08-16T08:28:56.160Z,26.70
2017-08-16T08:31:23.673Z,26.90
2017-08-16T08:33:51.237Z,26.70
2017-08-16T08:36:18.740Z,26.80
2017-08-16T08:38:47.008Z,25.90
2017-08-16T08:41:14.595Z,25.80
2017-08-16T08:43:42.948Z,25.20
2017-08-16T08:46:10.449Z,24.50
2017-08-16T08:48:37.980Z,24.20
2017-08-16T08:51:05.486Z,23.80
2017-08-16T08:53:33.313Z,24.50
2017-08-16T08:56:00.847Z,26.10
2017-08-16T08:58:28.856Z,28.30
2017-08-16T09:00:56.372Z,28.80
2017-08-16T09:03:23.888Z,28.90
2017-08-16T09:05:51.411Z,29.20
2017-08-16T09:08:18.931Z,29.10
2017-08-16T09:10:46.483Z,29.00
2017-08-16T09:13:13.992Z,28.50
2017-08-16T09:15:42.452Z,27.20
2017-08-16T09:18:09.990Z,26.30
2017-08-16T09:20:37.494Z,26.00
2017-08-16T09:23:05.011Z,25.80
2017-08-16T09:25:33.127Z,27.00
2017-08-16T09:28:01.405Z,30.00
2017-08-16T09:30:28.938Z,30.00
2017-08-16T09:32:56.443Z,30.30
2017-08-16T09:35:24.727Z,29.20
2017-08-16T09:37:52.227Z,29.20
2017-08-16T09:40:19.743Z,30.80
2017-08-16T09:42:47.323Z,31.70
2017-08-16T09:45:14.832Z,32.30
2017-08-16T09:47:42.331Z,31.10
2017-08-16T09:50:12.407Z,30.60
2017-08-16T09:52:39.932Z,30.40
2017-08-16T09:55:07.466Z,30.30
2017-08-16T09:57:35.463Z,29.10
2017-08-16T10:00:03.000Z,27.80
2017-08-16T10:02:30.504Z,26.80
2017-08-16T10:04:58.133Z,26.10
2017-08-16T10:07:25.635Z,25.90
2017-08-16T10:09:53.144Z,26.60
2017-08-16T10:12:20.675Z,29.00
2017-08-16T10:14:48.212Z,31.20
2017-08-16T10:17:15.750Z,32.10
2017-08-16T10:19:48.137Z,32.70
2017-08-16T10:22:16.111Z,33.30
2017-08-16T10:24:43.616Z,32.20
2017-08-16T10:27:11.129Z,32.10
2017-08-16T10:29:38.642Z,32.20
2017-08-16T10:32:06.580Z,32.70
2017-08-16T10:34:37.212Z,32.40
2017-08-16T10:37:04.707Z,31.80
2017-08-16T10:39:32.224Z,30.70
2017-08-16T10:41:59.891Z,29.30
2017-08-16T10:44:27.443Z,28.30
2017-08-16T10:46:54.940Z,27.80
2017-08-16T10:49:25.834Z,27.50
2017-08-16T10:51:53.336Z,27.20
2017-08-16T10:54:20.863Z,26.80
2017-08-16T10:56:48.412Z,26.60
2017-08-16T10:59:15.972Z,26.50
2017-08-16T11:01:43.557Z,27.30
2017-08-16T11:04:11.156Z,29.80
2017-08-16T11:06:39.586Z,31.20
2017-08-16T11:09:07.183Z,32.40
2017-08-16T11:11:34.697Z,33.60
2017-08-16T11:14:02.220Z,32.70
2017-08-16T11:16:29.759Z,31.60
2017-08-16T11:18:57.268Z,30.60
2017-08-16T11:21:29.037Z,31.50
2017-08-16T11:23:56.556Z,32.10
2017-08-16T11:26:24.674Z,33.20
2017-08-16T11:28:52.379Z,33.70
2017-08-16T11:31:19.911Z,33.90
2017-08-16T11:33:47.652Z,34.40
2017-08-16T11:36:15.170Z,34.40
2017-08-16T11:38:42.728Z,34.10
2017-08-16T11:41:10.230Z,33.40
2017-08-16T11:43:37.740Z,33.30
2017-08-16T11:46:05.307Z,32.30
2017-08-16T11:48:32.923Z,31.10
2017-08-16T11:51:07.463Z,30.40
2017-08-16T11:53:35.004Z,30.30
2017-08-16T11:56:03.324Z,29.20
2017-08-16T11:58:31.747Z,29.10
2017-08-16T12:01:00.112Z,29.40
2017-08-16T12:03:27.634Z,29.60
2017-08-16T12:05:55.916Z,31.00
2017-08-16T12:08:23.424Z,31.00
2017-08-16T12:10:50.967Z,32.40
2017-08-16T12:13:18.475Z,33.30
2017-08-16T12:15:46.031Z,33.70
2017-08-16T12:18:13.541Z,34.20
2017-08-16T12:20:41.084Z,34.20
2017-08-16T12:23:08.657Z,33.30
2017-08-16T12:25:36.155Z,33.30
2017-08-16T12:28:03.741Z,31.80
2017-08-16T12:30:31.239Z,30.70
2017-08-16T12:32:58.744Z,29.90
2017-08-16T12:35:26.335Z,29.60
2017-08-16T12:37:53.916Z,29.60
2017-08-16T12:40:21.480Z,29.60
2017-08-16T12:42:49.464Z,29.10
2017-08-16T12:45:17.000Z,28.90
2017-08-16T12:47:45.301Z,28.30
2017-08-16T12:50:12.881Z,28.20
2017-08-16T12:52:43.924Z,28.00
2017-08-16T12:55:11.448Z,27.90
2017-08-16T12:57:38.996Z,27.60
2017-08-16T13:00:06.527Z,27.50
2017-08-16T13:02:34.020Z,27.40
2017-08-16T13:05:01.583Z,27.40
2017-08-16T13:07:29.132Z,27.20
2017-08-16T13:09:56.702Z,27.40
2017-08-16T13:12:24.327Z,27.60
2017-08-16T13:14:51.954Z,27.90
2017-08-16T13:17:19.517Z,28.20
2017-08-16T13:19:47.074Z,28.50
2017-08-16T13:22:14.575Z,28.50
2017-08-16T13:24:42.090Z,28.30
2017-08-16T13:27:09.660Z,28.00
2017-08-16T13:29:37.159Z,27.80
2017-08-16T13:32:04.713Z,28.00
2017-08-16T13:34:33.003Z,28.30
2017-08-16T13:37:03.395Z,28.30
2017-08-16T13:39:30.908Z,28.10
2017-08-16T13:41:58.455Z,28.20
2017-08-16T13:44:25.972Z,28.20
2017-08-16T13:46:54.399Z,28.20
2017-08-16T13:49:22.692Z,28.40
2017-08-16T13:51:57.984Z,28.50
2017-08-16T13:54:25.491Z,28.30
2017-08-16T13:56:52.994Z,28.00
2017-08-16T13:59:20.543Z,28.20
2017-08-16T14:01:48.792Z,28.40
2017-08-16T14:04:16.306Z,28.30
2017-08-16T14:06:47.625Z,28.40
2017-08-16T14:09:15.124Z,28.30
2017-08-16T14:11:42.675Z,28.00
2017-08-16T14:14:10.231Z,28.20
2017-08-16T14:16:37.792Z,28.60
2017-08-16T14:19:05.290Z,28.80
2017-08-16T14:21:32.791Z,28.70
2017-08-16T14:24:03.413Z,28.80
2017-08-16T14:26:30.973Z,28.70
2017-08-16T14:28:58.473Z,28.40
2017-08-16T14:31:26.037Z,28.20
2017-08-16T14:33:53.560Z,28.10
2017-08-16T14:36:21.100Z,28.00
2017-08-16T14:38:53.076Z,28.00
2017-08-16T14:41:20.593Z,27.90
2017-08-16T14:43:49.035Z,27.90
2017-08-16T14:46:16.587Z,27.90
2017-08-16T14:48:44.130Z,27.90
2017-08-16T14:51:11.717Z,27.90
2017-08-16T14:53:42.800Z,27.90
2017-08-16T14:56:10.320Z,27.70
2017-08-16T14:58:37.819Z,27.60
2017-08-16T15:01:05.447Z,27.50
2017-08-16T15:03:32.960Z,27.40
2017-08-16T15:06:00.528Z,27.40
2017-08-16T15:08:32.016Z,27.30
2017-08-16T15:10:59.560Z,27.10
2017-08-16T15:13:27.116Z,27.00
2017-08-16T15:15:54.620Z,26.80
2017-08-16T15:18:22.183Z,26.80
2017-08-16T15:20:49.697Z,26.90
2017-08-16T15:23:21.155Z,27.00
2017-08-16T15:25:48.651Z,27.00
2017-08-16T15:28:16.163Z,26.90
2017-08-16T15:30:43.693Z,26.60
2017-08-16T15:33:11.196Z,26.50
2017-08-16T15:35:38.754Z,26.50
2017-08-16T15:38:06.268Z,26.40
2017-08-16T15:40:35.268Z,26.60
2017-08-16T15:43:05.719Z,26.70
2017-08-16T15:45:33.242Z,26.60
2017-08-16T15:48:01.520Z,26.90
2017-08-16T15:50:29.027Z,26.90
2017-08-16T15:52:56.519Z,26.90
2017-08-16T15:55:24.021Z,26.90
2017-08-16T15:57:51.527Z,26.90
2017-08-16T16:00:19.072Z,27.00
2017-08-16T16:02:46.576Z,27.10
2017-08-16T16:05:14.187Z,27.10
2017-08-16T16:07:41.688Z,27.00
2017-08-16T16:10:09.200Z,27.00
2017-08-16T16:12:36.705Z,26.80
2017-08-16T16:15:04.217Z,26.70
2017-08-16T16:17:31.777Z,26.60
2017-08-16T16:19:59.302Z,26.70
2017-08-16T16:22:26.856Z,26.60
2017-08-16T16:24:57.439Z,26.50
2017-08-16T16:27:29.140Z,26.40
2017-08-16T16:29:56.663Z,26.40
2017-08-16T16:32:24.195Z,26.40
2017-08-16T16:34:51.704Z,26.40
2017-08-16T16:37:19.241Z,26.30
2017-08-16T16:39:46.749Z,26.20
2017-08-16T16:42:14.256Z,26.30
2017-08-16T16:44:41.805Z,26.20
2017-08-16T16:47:09.328Z,26.10
2017-08-16T16:49:36.834Z,25.90
2017-08-16T16:52:04.331Z,25.90
2017-08-16T16:54:36.622Z,25.80
2017-08-16T16:57:04.167Z,25.80
2017-08-16T16:59:31.709Z,25.90
2017-08-16T17:01:59.199Z,25.80
2017-08-16T17:04:27.463Z,25.60
2017-08-16T17:06:54.989Z,25.60
2017-08-16T17:09:22.496Z,25.50
2017-08-16T17:11:54.447Z,25.30
2017-08-16T17:14:21.951Z,25.30
2017-08-16T17:16:49.455Z,25.30
2017-08-16T17:19:16.987Z,25.20
2017-08-16T17:21:44.524Z,25.10
2017-08-16T17:24:12.051Z,25.20
2017-08-16T17:26:43.412Z,25.10
2017-08-16T17:29:10.976Z,25.10
2017-08-16T17:31:38.523Z,25.20
2017-08-16T17:34:06.927Z,25.20
2017-08-16T17:36:34.436Z,25.10
2017-08-16T17:39:01.999Z,25.10
2017-08-16T17:41:33.287Z,25.00
2017-08-16T17:44:00.782Z,24.90
2017-08-16T17:46:28.313Z,24.90
2017-08-16T17:48:55.850Z,24.80
2017-08-16T17:51:23.360Z,24.80
2017-08-16T17:53:50.856Z,24.80
2017-08-16T17:56:22.228Z,24.80
2017-08-16T17:58:49.746Z,24.70
2017-08-16T18:01:17.251Z,24.60
2017-08-16T18:03:45.179Z,24.60
2017-08-16T18:06:12.767Z,24.40
2017-08-16T18:08:41.031Z,24.20
2017-08-16T18:11:15.323Z,24.20
2017-08-16T18:13:42.827Z,24.10
2017-08-16T18:16:11.124Z,24.00
2017-08-16T18:18:38.631Z,23.90
2017-08-16T18:21:06.175Z,23.80
2017-08-16T18:23:33.747Z,23.60
2017-08-16T18:26:01.487Z,23.40
2017-08-16T18:28:29.040Z,23.30
2017-08-16T18:30:56.603Z,23.20
2017-08-16T18:33:24.107Z,23.10
2017-08-16T18:35:51.599Z,23.00
2017-08-16T18:38:19.165Z,23.00
2017-08-16T18:40:46.659Z,22.90
2017-08-16T18:43:14.207Z,22.80
2017-08-16T18:45:45.609Z,22.70
2017-08-16T18:48:13.912Z,22.50
2017-08-16T18:50:41.955Z,22.50
2017-08-16T18:53:09.495Z,22.40
2017-08-16T18:55:37.005Z,22.50
2017-08-16T18:58:04.531Z,22.40
2017-08-16T19:00:32.090Z,22.40
2017-08-16T19:02:59.636Z,22.40
2017-08-16T19:05:27.149Z,22.30
2017-08-16T19:07:54.746Z,22.20
2017-08-16T19:10:22.269Z,22.10
2017-08-16T19:12:49.828Z,22.10
2017-08-16T19:15:17.332Z,22.10
2017-08-16T19:17:44.884Z,22.10
2017-08-16T19:20:13.737Z,22.10
2017-08-16T19:22:41.253Z,22.20
2017-08-16T19:25:08.778Z,22.20
2017-08-16T19:27:36.323Z,22.10
2017-08-16T19:30:07.329Z,22.10
2017-08-16T19:32:35.841Z,22.00
2017-08-16T19:35:03.350Z,21.90
2017-08-16T19:37:30.847Z,21.80
2017-08-16T19:39:58.434Z,21.70
2017-08-16T19:42:25.948Z,21.60
2017-08-16T19:44:53.457Z,21.60
2017-08-16T19:47:21.030Z,21.50
2017-08-16T19:49:49.256Z,21.60
2017-08-16T19:52:16.808Z,21.60
2017-08-16T19:54:44.332Z,21.60
2017-08-16T19:57:12.021Z,21.60
2017-08-16T19:59:39.589Z,21.60
2017-08-16T20:02:07.113Z,21.40
2017-08-16T20:04:34.687Z,21.40
2017-08-16T20:07:02.197Z,21.30
2017-08-16T20:09:29.807Z,21.30
2017-08-16T20:11:57.384Z,21.30
2017-08-16T20:14:24.888Z,21.20
2017-08-16T20:16:52.424Z,21.20
2017-08-16T20:19:19.987Z,21.10
2017-08-16T20:21:47.492Z,21.10
2017-08-16T20:24:15.497Z,21.10
2017-08-16T20:26:43.044Z,21.10
2017-08-16T20:29:14.362Z,21.10
2017-08-16T20:31:42.579Z,21.10
2017-08-16T20:34:10.099Z,21.10
2017-08-16T20:36:37.685Z,20.90
2017-08-16T20:39:05.225Z,20.80
2017-08-16T20:41:32.748Z,20.70
2017-08-16T20:44:07.301Z,20.70
2017-08-16T20:46:42.085Z,20.70
2017-08-16T20:49:10.380Z,20.80
2017-08-16T20:51:37.896Z,20.80
2017-08-16T20:54:05.396Z,20.80
2017-08-16T20:56:33.659Z,20.70
2017-08-16T20:59:04.857Z,20.70
2017-08-16T21:01:32.360Z,20.70
2017-08-16T21:03:59.923Z,20.70
2017-08-16T21:06:27.484Z,20.70
2017-08-16T21:08:55.040Z,20.70
2017-08-16T21:11:22.539Z,20.60
2017-08-16T21:13:55.448Z,20.60
2017-08-16T21:16:22.997Z,20.50
2017-08-16T21:18:50.911Z,20.40
2017-08-16T21:21:18.428Z,20.40
2017-08-16T21:23:45.956Z,20.40
2017-08-16T21:26:15.340Z,20.40
2017-08-16T21:28:42.859Z,20.30
2017-08-16T21:31:10.380Z,20.30
2017-08-16T21:33:37.896Z,20.30
2017-08-16T21:36:05.408Z,20.30
2017-08-16T21:38:32.930Z,20.20
2017-08-16T21:41:00.492Z,20.00
2017-08-16T21:43:28.020Z,20.00
2017-08-16T21:46:02.400Z,19.90
2017-08-16T21:48:29.960Z,19.90
2017-08-16T21:50:57.479Z,20.00
2017-08-16T21:53:24.981Z,20.00
2017-08-16T21:55:52.943Z,19.90
2017-08-16T21:58:20.491Z,19.80
2017-08-16T22:00:48.776Z,19.60
2017-08-16T22:03:16.328Z,19.60
2017-08-16T22:05:44.649Z,19.60
2017-08-16T22:08:12.203Z,19.60
2017-08-16T22:10:39.752Z,19.60
2017-08-16T22:13:07.273Z,19.70
2017-08-16T22:15:39.417Z,19.70
2017-08-16T22:18:07.588Z,19.60
2017-08-16T22:20:35.088Z,19.60
2017-08-16T22:23:02.644Z,19.50
2017-08-16T22:25:30.208Z,19.40
2017-08-16T22:27:58.512Z,19.40
2017-08-16T22:30:26.037Z,19.40
2017-08-16T22:32:56.972Z,19.50
2017-08-16T22:35:24.572Z,19.60
2017-08-16T22:37:52.132Z,19.70
2017-08-16T22:40:20.243Z,19.70
2017-08-16T22:42:47.759Z,19.70
2017-08-16T22:45:22.903Z,19.70
2017-08-16T22:47:50.458Z,19.70
2017-08-16T22:50:17.964Z,19.70
2017-08-16T22:52:45.479Z,19.70
2017-08-16T22:55:13.848Z,19.60
2017-08-16T22:57:42.203Z,19.60
2017-08-16T23:00:09.752Z,19.60
2017-08-16T23:02:37.271Z,19.50
2017-08-16T23:05:04.805Z,19.40
2017-08-16T23:07:32.307Z,19.30
2017-08-16T23:09:59.817Z,19.20
2017-08-16T23:12:28.093Z,19.10
2017-08-16T23:14:55.652Z,19.10
2017-08-16T23:17:23.179Z,19.10
2017-08-16T23:19:50.717Z,19.10
2017-08-16T23:22:18.224Z,19.00
2017-08-16T23:24:45.784Z,19.00
2017-08-16T23:27:14.132Z,19.00
2017-08-16T23:29:42.317Z,18.90
2017-08-16T23:32:11.123Z,18.80
2017-08-16T23:34:38.627Z,18.80
2017-08-16T23:37:06.179Z,18.70
2017-08-16T23:39:33.689Z,18.70
2017-08-16T23:42:01.196Z,18.60
2017-08-16T23:44:28.714Z,18.70
2017-08-16T23:46:59.090Z,18.70
2017-08-16T23:49:26.648Z,18.70
2017-08-16T23:51:54.164Z,18.60
2017-08-16T23:54:21.711Z,18.50
2017-08-16T23:56:49.252Z,18.40
2017-08-16T23:59:16.816Z,18.50
